createdAt,value
2022-12-23T00:23:09.637Z,12.4
2022-12-23T00:52:54.557Z,11.5
2022-12-23T01:22:54.874Z,13
2022-12-23T01:53:04.557Z,17.4
2022-12-23T02:23:10.558Z,23.2
2022-12-23T02:52:57.857Z,25.2
2022-12-23T03:23:00.896Z,23.4
2022-12-23T03:53:00.016Z,23.5
2022-12-23T04:22:57.956Z,22.7
2022-12-23T04:52:58.640Z,21
2022-12-23T05:23:01.243Z,21.3
2022-12-23T05:52:59.614Z,20.7
2022-12-23T06:22:59.935Z,17.2
2022-12-23T06:53:00.140Z,17.8
2022-12-23T07:23:01.766Z,14.7
2022-12-23T07:53:01.369Z,15.6
2022-12-23T08:23:01.311Z,12.8
2022-12-23T08:53:01.817Z,12.3
2022-12-23T09:23:03.579Z,11.4
2022-12-23T09:53:04.556Z,13.1
2022-12-23T10:23:02.789Z,16.3
2022-12-23T10:53:04.118Z,15.2
2022-12-23T11:23:03.899Z,12.7
2022-12-23T11:53:05.200Z,15.2
2022-12-23T12:23:06.070Z,14.2
2022-12-23T12:53:07.416Z,11.8
2022-12-23T13:23:41.231Z,10.6
2022-12-23T13:53:12.622Z,8.5
2022-12-23T14:23:11.541Z,7.9
2022-12-23T14:53:07.640Z,8
2022-12-23T15:23:12.768Z,7.9
2022-12-23T15:53:10.889Z,8.4
2022-12-23T16:23:09.339Z,13.2
2022-12-23T16:53:12.106Z,11.6
2022-12-23T17:23:10.675Z,11.2
2022-12-23T17:53:12.597Z,10.5
2022-12-23T18:23:10.860Z,6.7
2022-12-23T18:53:11.139Z,5.9
2022-12-23T19:23:15.257Z,5.5
2022-12-23T19:53:11.429Z,8
2022-12-23T20:23:13.961Z,11.5
2022-12-23T20:53:12.429Z,12.8
2022-12-23T21:23:13.606Z,9.5
2022-12-23T21:53:13.278Z,7.8
2022-12-23T22:23:13.903Z,4.5
2022-12-23T22:53:15.132Z,6.3
2022-12-23T23:23:14.597Z,19.6
2022-12-23T23:53:15.374Z,25.8
